Bloomfield, New Jersey
Current Conditions -  °F | °C
As of 2:51 AM on Sunday 28 Dec 2014 (Local Time) from KEWR Reporting Station
Broken Clouds Broken Clouds  
Wind Chill: 42°   Ceiling: 18000
Heat Index: 42°   Visibility: 10mi
Dew Point: 37°   Wind: 3mph
Humidity: 82%   Direction: 210°SSW
Pressure: 29.97"   Gusts: NA
Location:  40.79°N, 74.19°W
Report Text: KEWR 280751Z 21003KT 10SM FEW100 BKN180 06/03 A2997 RMK AO2 SLP148 T00560028
Loading
Personal Weather Stations






























Interactive Weather Map New forecast layout! Learn more

10-Day Weather Forecast

Advertisements
Track Severe Weather on mobile